Time;durP1;ratioP1;P1;durP2;ratioP2;P2;SDS_P1;SDS_P2;PMS_P1;PMS_P2;Temp;Humidity;BMP_temperature;BMP_pressure;BME280_temperature;BME280_humidity;BME280_pressure;Samples;Min_cycle;Max_cycle;Signal;HPM_P1;HPM_P2
2022/04/10 00:02:08;;;;;;;3.03;1.80;;;10.50;96.10;;;;;;4931222;29;20475;-72
2022/04/10 00:04:34;;;;;;;2.17;1.80;;;10.50;96.10;;;;;;4931006;29;20433;-71
2022/04/10 00:07:02;;;;;;;3.07;2.10;;;10.40;96.00;;;;;;4932887;29;20463;-71
2022/04/10 00:09:33;;;;;;;3.90;2.17;;;10.40;96.10;;;;;;4919332;29;20423;-71
2022/04/10 00:12:01;;;;;;;5.00;2.00;;;10.40;96.10;;;;;;4930888;29;20455;-71
2022/04/10 00:14:34;;;;;;;3.53;2.13;;;10.40;96.10;;;;;;4946696;29;20454;-71
2022/04/10 00:17:03;;;;;;;2.43;1.70;;;10.40;96.10;;;;;;4954713;28;20821;-71
2022/04/10 00:19:31;;;;;;;3.20;1.63;;;10.40;96.10;;;;;;4953263;29;20473;-71
2022/04/10 00:22:02;;;;;;;4.70;2.30;;;10.40;96.10;;;;;;4950719;29;20878;-71
2022/04/10 00:24:28;;;;;;;4.63;2.17;;;10.40;96.20;;;;;;4926184;29;20467;-71
2022/04/10 00:26:54;;;;;;;3.23;1.90;;;10.30;96.10;;;;;;4934357;29;20444;-71
2022/04/10 00:29:20;;;;;;;2.63;1.80;;;10.30;96.10;;;;;;4935174;29;20436;-71
2022/04/10 00:31:46;;;;;;;4.37;1.73;;;10.30;96.10;;;;;;4921287;29;20447;-71
2022/04/10 00:34:13;;;;;;;3.47;1.90;;;10.30;96.10;;;;;;4928380;29;20448;-72
2022/04/10 00:36:42;;;;;;;4.27;2.33;;;10.30;96.20;;;;;;4935411;29;20440;-72
2022/04/10 00:39:08;;;;;;;3.10;2.20;;;10.30;96.20;;;;;;4952716;29;20443;-71
2022/04/10 00:41:40;;;;;;;2.73;1.80;;;10.30;96.20;;;;;;4927970;29;20439;-71
2022/04/10 00:44:11;;;;;;;2.97;1.73;;;10.30;96.20;;;;;;4942085;29;20454;-71
2022/04/10 00:46:37;;;;;;;4.53;2.30;;;10.20;96.20;;;;;;4954028;29;21308;-72
2022/04/10 00:49:06;;;;;;;5.17;2.13;;;10.20;96.20;;;;;;4923675;29;20443;-71
2022/04/10 00:51:43;;;;;;;3.43;2.17;;;10.20;96.20;;;;;;4902614;29;20484;-71
2022/04/10 00:54:12;;;;;;;2.83;1.83;;;10.20;96.30;;;;;;4934974;29;20423;-69
2022/04/10 00:56:38;;;;;;;3.33;2.10;;;10.20;96.30;;;;;;4936522;29;20439;-69
2022/04/10 00:59:07;;;;;;;5.00;2.30;;;10.20;96.40;;;;;;4936337;29;20454;-69
2022/04/10 01:01:38;;;;;;;2.97;2.30;;;10.20;96.70;;;;;;4953239;29;20547;-69
2022/04/10 01:04:12;;;;;;;3.33;2.27;;;10.20;96.40;;;;;;4952588;29;20481;-69
2022/04/10 01:06:39;;;;;;;2.40;1.60;;;10.20;96.40;;;;;;4918023;29;20435;-69
2022/04/10 01:09:06;;;;;;;5.10;2.30;;;10.20;96.40;;;;;;4931130;29;20427;-70
2022/04/10 01:11:36;;;;;;;3.00;2.00;;;10.10;96.40;;;;;;4934527;29;20999;-69
2022/04/10 01:14:04;;;;;;;4.30;2.20;;;10.10;96.40;;;;;;4933871;29;20459;-69
2022/04/10 01:16:31;;;;;;;6.17;2.47;;;10.10;96.40;;;;;;4933577;29;20424;-69
2022/04/10 01:19:06;;;;;;;3.47;1.90;;;10.10;96.40;;;;;;4929750;29;20423;-69
2022/04/10 01:21:40;;;;;;;2.43;1.87;;;10.10;96.50;;;;;;4933545;29;20434;-69
2022/04/10 01:24:11;;;;;;;4.60;1.80;;;10.10;96.50;;;;;;4945391;29;20447;-69
2022/04/10 01:26:38;;;;;;;4.77;2.00;;;10.10;96.50;;;;;;4952605;29;20446;-69
2022/04/10 01:29:14;;;;;;;4.30;2.07;;;10.00;96.50;;;;;;4925320;29;20440;-70
2022/04/10 01:31:46;;;;;;;3.63;2.00;;;10.00;96.50;;;;;;4902165;29;20490;-69
2022/04/10 01:34:19;;;;;;;3.50;2.10;;;10.00;96.50;;;;;;4945055;29;20411;-70
2022/04/10 01:36:46;;;;;;;2.53;2.00;;;10.00;96.50;;;;;;4952300;29;20438;-70
2022/04/10 01:39:17;;;;;;;2.53;1.80;;;10.00;96.60;;;;;;4952295;28;20459;-69
2022/04/10 01:41:46;;;;;;;3.27;2.10;;;10.00;96.60;;;;;;4938178;29;20432;-70
2022/04/10 01:44:13;;;;;;;3.00;1.97;;;10.00;96.60;;;;;;4946604;28;20423;-70
2022/04/10 01:46:41;;;;;;;3.67;1.80;;;9.90;97.10;;;;;;4921454;29;20976;-69
2022/04/10 01:49:09;;;;;;;2.90;2.07;;;9.90;97.10;;;;;;4922123;29;20446;-70
2022/04/10 01:51:40;;;;;;;4.37;2.20;;;9.90;97.20;;;;;;4936022;29;20438;-70
2022/04/10 01:54:07;;;;;;;6.97;2.33;;;9.90;97.20;;;;;;4956045;29;20451;-69
2022/04/10 01:56:38;;;;;;;3.60;2.47;;;9.90;97.20;;;;;;4948104;29;20831;-69
2022/04/10 01:59:05;;;;;;;2.67;2.20;;;9.90;97.20;;;;;;4905865;29;20451;-69
2022/04/10 02:01:32;;;;;;;4.57;2.37;;;9.90;97.20;;;;;;4938362;29;20996;-69
2022/04/10 02:04:00;;;;;;;3.17;2.37;;;9.90;97.20;;;;;;4921342;29;20424;-69
2022/04/10 02:06:28;;;;;;;4.93;2.30;;;9.90;97.20;;;;;;4943572;29;20446;-69
2022/04/10 02:08:56;;;;;;;2.90;2.00;;;9.90;97.20;;;;;;4940165;29;20525;-69
2022/04/10 02:11:23;;;;;;;3.20;2.00;;;9.80;97.20;;;;;;4928081;29;20435;-69
2022/04/10 02:13:56;;;;;;;2.50;2.00;;;9.80;97.20;;;;;;4940282;29;20422;-69
2022/04/10 02:16:26;;;;;;;2.23;2.00;;;9.80;97.20;;;;;;4936559;29;20451;-69
2022/04/10 02:18:52;;;;;;;4.50;2.27;;;9.80;97.30;;;;;;4937026;29;20412;-71
2022/04/10 02:21:18;;;;;;;3.80;2.33;;;9.80;97.20;;;;;;4923646;29;20992;-70
2022/04/10 02:23:44;;;;;;;3.50;2.17;;;9.80;97.20;;;;;;4955691;29;20467;-71
2022/04/10 02:26:12;;;;;;;4.00;2.53;;;9.80;97.20;;;;;;4954122;29;20513;-70
2022/04/10 02:28:40;;;;;;;2.93;2.33;;;9.80;97.30;;;;;;4944464;29;20820;-70
2022/04/10 02:31:07;;;;;;;4.33;2.47;;;9.80;97.30;;;;;;4955678;29;20411;-71
2022/04/10 02:33:35;;;;;;;5.17;2.30;;;9.80;97.30;;;;;;4939781;29;20517;-71
2022/04/10 02:36:04;;;;;;;3.63;1.90;;;9.70;97.30;;;;;;4937608;29;20456;-71
2022/04/10 02:38:35;;;;;;;5.40;2.27;;;9.70;97.20;;;;;;4921046;29;20448;-71
2022/04/10 02:41:04;;;;;;;5.80;2.80;;;9.70;97.60;;;;;;4954323;29;20423;-70
2022/04/10 02:43:30;;;;;;;4.80;2.63;;;9.70;97.20;;;;;;4923407;29;20894;-71
2022/04/10 02:46:04;;;;;;;4.07;1.90;;;9.70;97.30;;;;;;4944316;29;20964;-70
2022/04/10 02:48:39;;;;;;;3.63;2.10;;;9.60;97.20;;;;;;4945754;29;20486;-70
2022/04/10 02:51:14;;;;;;;3.37;2.37;;;9.70;97.30;;;;;;4926884;29;20450;-71
2022/04/10 02:53:47;;;;;;;3.17;2.17;;;9.60;97.20;;;;;;4953183;29;20466;-72
2022/04/10 02:56:34;;;;;;;3.83;2.57;;;9.70;97.30;;;;;;4944793;29;20450;-71
2022/04/10 02:59:18;;;;;;;2.37;1.77;;;9.60;97.20;;;;;;4946553;29;20422;-71
2022/04/10 03:02:05;;;;;;;3.40;2.67;;;9.60;97.20;;;;;;4941913;29;20457;-71
2022/04/10 03:04:50;;;;;;;4.77;2.47;;;9.60;97.20;;;;;;4941826;29;20479;-71
2022/04/10 03:07:38;;;;;;;4.97;2.77;;;9.60;97.20;;;;;;4937293;29;20450;-71
2022/04/10 03:10:25;;;;;;;4.33;2.27;;;9.50;97.10;;;;;;4954773;29;20801;-71
2022/04/10 03:13:09;;;;;;;3.00;1.97;;;9.50;97.20;;;;;;4949636;29;20443;-71
2022/04/10 03:15:55;;;;;;;3.00;2.40;;;9.50;97.20;;;;;;4938518;29;20462;-71
2022/04/10 03:18:41;;;;;;;3.07;2.30;;;9.50;97.20;;;;;;4955004;29;20410;-71
2022/04/10 03:21:28;;;;;;;4.30;2.67;;;9.50;97.20;;;;;;4945843;29;20509;-71
2022/04/10 03:24:13;;;;;;;3.90;2.40;;;9.40;97.20;;;;;;4935720;29;20419;-71
2022/04/10 03:26:58;;;;;;;5.37;2.20;;;9.40;97.20;;;;;;4948744;29;20450;-70
2022/04/10 03:29:43;;;;;;;3.40;2.10;;;9.40;97.20;;;;;;4951141;29;21004;-71
2022/04/10 03:32:29;;;;;;;3.53;2.30;;;9.40;97.20;;;;;;4935682;29;20771;-71
2022/04/10 03:35:17;;;;;;;5.13;2.20;;;9.40;97.20;;;;;;4935175;29;20400;-71
2022/04/10 03:38:04;;;;;;;2.20;2.00;;;9.40;97.20;;;;;;4935907;29;20529;-71
2022/04/10 03:40:49;;;;;;;5.13;2.37;;;9.40;97.30;;;;;;4947534;29;20433;-71
2022/04/10 03:43:37;;;;;;;3.50;2.20;;;9.40;97.30;;;;;;4947703;29;20458;-71
2022/04/10 03:46:22;;;;;;;4.40;2.40;;;9.30;97.20;;;;;;4934937;29;20992;-72
2022/04/10 03:49:07;;;;;;;4.80;2.40;;;9.30;97.20;;;;;;4939306;29;20446;-71
2022/04/10 03:51:54;;;;;;;3.40;2.40;;;9.30;97.20;;;;;;4937940;29;20845;-71
2022/04/10 03:54:39;;;;;;;4.30;2.33;;;9.30;97.30;;;;;;4954558;29;20482;-71
2022/04/10 03:57:24;;;;;;;2.47;1.87;;;9.30;97.30;;;;;;4946698;29;20450;-71
2022/04/10 04:00:12;;;;;;;3.90;2.30;;;9.30;97.30;;;;;;4939959;29;20546;-71
2022/04/10 04:03:02;;;;;;;4.70;2.70;;;9.30;97.30;;;;;;4942933;29;20498;-71
2022/04/10 04:05:51;;;;;;;4.60;2.43;;;9.30;97.20;;;;;;4948541;29;20423;-71
2022/04/10 04:08:35;;;;;;;3.90;2.10;;;9.20;97.20;;;;;;4942016;29;20823;-71
2022/04/10 04:11:20;;;;;;;7.03;2.90;;;9.20;97.20;;;;;;4939094;29;20445;-71
2022/04/10 04:14:05;;;;;;;3.70;2.53;;;9.20;97.20;;;;;;4937102;29;20427;-71
2022/04/10 04:16:50;;;;;;;3.53;2.23;;;9.20;97.20;;;;;;4934833;29;20486;-71
2022/04/10 04:19:35;;;;;;;3.87;2.50;;;9.20;97.20;;;;;;4950721;29;20495;-71
2022/04/10 04:22:21;;;;;;;3.80;2.63;;;9.20;97.20;;;;;;4953281;29;20490;-71
2022/04/10 04:25:06;;;;;;;4.67;2.93;;;9.10;97.10;;;;;;4934592;29;20511;-71
2022/04/10 04:27:53;;;;;;;4.13;2.63;;;9.10;97.10;;;;;;4935917;29;20458;-71
2022/04/10 04:30:38;;;;;;;4.93;2.43;;;9.10;97.10;;;;;;4934382;29;20395;-71
2022/04/10 04:33:23;;;;;;;5.90;2.70;;;9.10;97.10;;;;;;4949699;29;20481;-71
2022/04/10 04:36:08;;;;;;;3.93;2.50;;;9.10;97.10;;;;;;4953642;29;20460;-72
2022/04/10 04:38:53;;;;;;;3.97;2.60;;;9.10;97.20;;;;;;4952252;29;20482;-71
2022/04/10 04:41:40;;;;;;;4.00;2.60;;;9.10;97.20;;;;;;4948038;29;20463;-71
2022/04/10 04:44:25;;;;;;;4.33;2.83;;;9.10;97.50;;;;;;4935470;29;20931;-71
2022/04/10 04:47:11;;;;;;;3.30;2.70;;;9.10;97.10;;;;;;4921898;29;20455;-71
2022/04/10 04:49:58;;;;;;;5.20;3.27;;;9.00;97.10;;;;;;4934663;29;20458;-71
2022/04/10 04:52:48;;;;;;;9.27;2.50;;;9.00;97.10;;;;;;4947407;29;20449;-71
2022/04/10 04:55:35;;;;;;;5.27;2.63;;;9.00;97.10;;;;;;4953158;29;20395;-71
2022/04/10 04:58:20;;;;;;;4.83;3.30;;;9.00;97.10;;;;;;4939276;29;20427;-72
2022/04/10 05:01:07;;;;;;;5.20;2.93;;;9.00;97.10;;;;;;4939288;29;20967;-72
2022/04/10 05:03:54;;;;;;;3.30;2.67;;;9.00;97.10;;;;;;4953369;29;20821;-72
2022/04/10 05:06:41;;;;;;;5.17;2.53;;;9.00;97.10;;;;;;4952002;29;20501;-71
2022/04/10 05:09:26;;;;;;;4.47;2.70;;;8.90;97.10;;;;;;4947349;29;20471;-71
2022/04/10 05:12:10;;;;;;;4.10;2.87;;;8.90;97.10;;;;;;4951156;29;20494;-72
2022/04/10 05:15:00;;;;;;;4.70;2.83;;;8.90;97.10;;;;;;4952955;28;20433;-72
2022/04/10 05:17:47;;;;;;;5.80;3.27;;;8.90;97.10;;;;;;4939294;29;20532;-71
2022/04/10 05:20:37;;;;;;;6.33;3.10;;;8.90;97.10;;;;;;4953239;29;21036;-72
2022/04/10 05:23:29;;;;;;;3.93;2.70;;;8.90;97.10;;;;;;4935917;29;20880;-71
2022/04/10 05:26:21;;;;;;;8.03;3.27;;;8.90;97.10;;;;;;4923943;29;20475;-71
2022/04/10 05:29:11;;;;;;;4.13;3.00;;;8.90;97.10;;;;;;4940391;29;21016;-72
2022/04/10 05:31:56;;;;;;;4.20;3.07;;;8.80;97.10;;;;;;4946919;29;20427;-71
2022/04/10 05:34:41;;;;;;;5.67;3.00;;;8.80;97.10;;;;;;4934211;29;20550;-72
2022/04/10 05:37:26;;;;;;;4.57;3.00;;;8.80;97.10;;;;;;4944890;29;20544;-72
2022/04/10 05:40:16;;;;;;;4.20;2.70;;;8.80;97.10;;;;;;4952774;29;20553;-71
2022/04/10 05:43:01;;;;;;;5.37;2.23;;;8.80;97.10;;;;;;4937656;29;20463;-71
2022/04/10 05:45:48;;;;;;;5.80;3.10;;;8.80;97.10;;;;;;4933889;29;20411;-71
2022/04/10 05:48:33;;;;;;;4.80;2.90;;;8.80;97.20;;;;;;4933892;29;20936;-71
2022/04/10 05:51:20;;;;;;;4.67;2.70;;;8.70;97.10;;;;;;4921069;29;20489;-71
2022/04/10 05:54:04;;;;;;;3.80;2.67;;;8.70;97.10;;;;;;4952953;29;20506;-71
2022/04/10 05:56:57;;;;;;;5.20;3.07;;;8.70;97.10;;;;;;4948207;29;20469;-71
2022/04/10 05:59:42;;;;;;;5.50;2.97;;;8.70;97.20;;;;;;4938319;29;21008;-71
2022/04/10 06:02:27;;;;;;;6.63;3.33;;;8.70;97.20;;;;;;4939245;29;20502;-71
2022/04/10 06:05:12;;;;;;;5.37;3.17;;;8.70;97.20;;;;;;4948850;29;20423;-71
2022/04/10 06:08:10;;;;;;;4.10;2.70;;;8.70;97.30;;;;;;4953969;29;20446;-73
2022/04/10 06:10:55;;;;;;;9.83;3.10;;;8.70;97.30;;;;;;4924166;29;20419;-73
2022/04/10 06:13:42;;;;;;;4.40;2.77;;;8.70;97.30;;;;;;4933523;29;20455;-72
2022/04/10 06:16:17;;;;;;;5.27;2.93;;;8.70;97.30;;;;;;4928860;29;20454;-72
2022/04/10 06:18:48;;;;;;;4.90;2.77;;;8.70;97.40;;;;;;4936843;29;20395;-73
2022/04/10 06:21:16;;;;;;;5.80;2.93;;;8.60;97.40;;;;;;4925404;29;20462;-72
2022/04/10 06:23:44;;;;;;;7.50;3.30;;;8.60;97.40;;;;;;4901925;29;21001;-73
2022/04/10 06:26:16;;;;;;;6.73;2.80;;;8.60;97.40;;;;;;4935075;29;20530;-72
2022/04/10 06:28:44;;;;;;;6.23;2.93;;;8.60;97.40;;;;;;4944266;29;20450;-72
2022/04/10 06:31:17;;;;;;;6.07;2.97;;;8.70;97.50;;;;;;4954328;29;20461;-73
2022/04/10 06:33:45;;;;;;;3.53;2.80;;;8.60;97.50;;;;;;4948319;29;20423;-73
2022/04/10 06:36:16;;;;;;;4.60;3.03;;;8.60;97.50;;;;;;4936509;29;20432;-73
2022/04/10 06:38:42;;;;;;;5.47;3.33;;;8.60;97.50;;;;;;4942701;29;20447;-72
2022/04/10 06:41:16;;;;;;;4.63;3.30;;;8.70;97.60;;;;;;4938465;29;20473;-73
2022/04/10 06:43:45;;;;;;;4.97;2.87;;;8.70;97.60;;;;;;4949631;29;20461;-73
2022/04/10 06:46:13;;;;;;;4.60;3.43;;;8.60;97.60;;;;;;4937459;29;20523;-73
2022/04/10 06:48:51;;;;;;;5.07;3.07;;;8.60;97.60;;;;;;4937257;29;20455;-72
2022/04/10 06:51:17;;;;;;;7.43;3.17;;;8.60;97.60;;;;;;4928852;29;20422;-72
2022/04/10 06:53:43;;;;;;;7.50;3.90;;;8.60;97.60;;;;;;4948336;29;20432;-73
2022/04/10 06:56:09;;;;;;;6.10;3.27;;;8.60;97.70;;;;;;4925160;29;20497;-72
2022/04/10 06:58:40;;;;;;;4.47;3.47;;;8.70;97.70;;;;;;4939004;29;20447;-73
2022/04/10 07:01:06;;;;;;;5.47;3.33;;;8.60;97.70;;;;;;4949267;29;20789;-73
2022/04/10 07:03:35;;;;;;;8.30;3.47;;;8.60;97.80;;;;;;4919984;29;20482;-72
2022/04/10 07:06:08;;;;;;;5.90;3.50;;;8.60;97.80;;;;;;4938319;29;20863;-72
2022/04/10 07:08:41;;;;;;;6.80;3.60;;;8.60;97.80;;;;;;4939734;29;20483;-72
2022/04/10 07:11:08;;;;;;;6.67;3.17;;;8.60;97.80;;;;;;4926994;29;20439;-73
2022/04/10 07:13:35;;;;;;;4.30;3.43;;;8.60;97.90;;;;;;4939273;29;20964;-73
2022/04/10 07:16:05;;;;;;;7.27;4.10;;;8.70;97.90;;;;;;4906771;29;20959;-72
2022/04/10 07:18:31;;;;;;;5.83;4.10;;;8.60;97.90;;;;;;4935852;29;20404;-72
2022/04/10 07:21:03;;;;;;;5.43;3.70;;;8.70;98.30;;;;;;4914134;29;20504;-72
2022/04/10 07:23:45;;;;;;;4.57;4.00;;;8.70;98.00;;;;;;4935716;29;20464;-73
2022/04/10 07:26:26;;;;;;;11.50;4.07;;;8.70;98.00;;;;;;4919996;29;20448;-73
2022/04/10 07:28:58;;;;;;;5.40;3.40;;;8.70;98.00;;;;;;4940370;29;20466;-72
2022/04/10 07:31:28;;;;;;;5.93;3.60;;;8.70;98.00;;;;;;4945295;29;20507;-73
2022/04/10 07:33:57;;;;;;;4.80;3.80;;;8.70;98.10;;;;;;4948314;29;20507;-72
2022/04/10 07:36:46;;;;;;;6.43;3.40;;;8.60;98.10;;;;;;4922438;29;20458;-73
2022/04/10 07:39:14;;;;;;;7.00;3.80;;;8.60;98.10;;;;;;4941770;29;21128;-72
2022/04/10 07:41:50;;;;;;;5.50;3.50;;;8.60;98.20;;;;;;4941536;29;20490;-73
2022/04/10 07:44:23;;;;;;;6.67;3.57;;;8.70;98.60;;;;;;4935459;29;20503;-73
2022/04/10 07:49:36;;;;;;;7.70;3.67;;;8.70;98.30;;;;;;4935310;29;20420;-72
2022/04/10 07:52:06;;;;;;;5.13;3.77;;;8.70;98.30;;;;;;4918561;29;20514;-73
2022/04/10 07:54:55;;;;;;;7.47;3.43;;;8.60;98.30;;;;;;4941052;29;21000;-73
2022/04/10 07:57:23;;;;;;;8.97;4.20;;;8.60;98.30;;;;;;4937782;29;20443;-73
2022/04/10 07:59:52;;;;;;;6.70;3.87;;;8.70;98.40;;;;;;4945425;29;20885;-72
2022/04/10 08:02:46;;;;;;;5.13;3.50;;;8.70;98.50;;;;;;4921800;29;20467;-73
2022/04/10 08:05:35;;;;;;;4.53;3.30;;;8.70;98.50;;;;;;4951967;29;20438;-73
2022/04/10 08:08:16;;;;;;;8.70;4.33;;;8.60;98.50;;;;;;4939904;29;20448;-73
2022/04/10 08:10:44;;;;;;;5.37;3.30;;;8.60;98.50;;;;;;4945704;29;20432;-73
2022/04/10 08:13:12;;;;;;;8.60;4.10;;;8.70;98.60;;;;;;4934327;29;20451;-73
2022/04/10 08:15:38;;;;;;;7.33;4.00;;;8.70;98.60;;;;;;4938508;29;20446;-72
2022/04/10 08:18:04;;;;;;;6.70;3.53;;;8.70;98.60;;;;;;4946747;29;20548;-73
2022/04/10 08:20:30;;;;;;;6.70;3.60;;;8.70;98.60;;;;;;4925444;29;20427;-73
2022/04/10 08:22:59;;;;;;;5.03;3.67;;;8.70;98.60;;;;;;4950543;29;20991;-72
2022/04/10 08:25:26;;;;;;;6.07;3.60;;;8.70;98.60;;;;;;4933794;28;20460;-73
2022/04/10 08:27:52;;;;;;;5.77;3.60;;;8.70;98.60;;;;;;4916954;29;20447;-73
2022/04/10 08:30:18;;;;;;;5.27;3.30;;;8.70;98.60;;;;;;4917811;29;20497;-73
2022/04/10 08:32:47;;;;;;;7.57;3.83;;;8.70;98.60;;;;;;4930736;29;20997;-75
2022/04/10 08:35:16;;;;;;;6.87;3.57;;;8.70;98.60;;;;;;4950815;28;20999;-74
2022/04/10 08:37:47;;;;;;;3.33;2.57;;;8.70;98.60;;;;;;4928411;29;20452;-74
2022/04/10 08:40:13;;;;;;;6.83;3.33;;;8.80;98.60;;;;;;4934366;29;20447;-75
2022/04/10 08:42:39;;;;;;;5.30;3.50;;;8.80;98.60;;;;;;4921058;29;20647;-75
2022/04/10 08:45:09;;;;;;;9.60;3.90;;;8.80;98.60;;;;;;4951217;29;20964;-75
2022/04/10 08:47:38;;;;;;;7.13;3.20;;;8.80;99.00;;;;;;4938023;29;20901;-75
2022/04/10 08:50:05;;;;;;;6.60;3.93;;;8.80;98.60;;;;;;4943677;28;20529;-75
2022/04/10 08:52:31;;;;;;;5.00;3.10;;;8.90;98.60;;;;;;4950904;29;20447;-75
2022/04/10 08:54:57;;;;;;;6.30;3.00;;;8.90;98.60;;;;;;4934730;29;20443;-75
2022/04/10 08:57:26;;;;;;;3.30;2.60;;;8.90;98.60;;;;;;4916205;29;20462;-76
2022/04/10 08:59:56;;;;;;;4.03;2.87;;;8.90;98.60;;;;;;4944312;29;20445;-75
2022/04/10 09:02:26;;;;;;;7.20;2.87;;;8.90;98.60;;;;;;4938823;28;20466;-75
2022/04/10 09:04:55;;;;;;;3.80;2.70;;;8.90;98.60;;;;;;4945826;29;20482;-75
2022/04/10 09:07:22;;;;;;;5.20;2.83;;;9.00;98.60;;;;;;4937210;29;20441;-75
2022/04/10 09:09:56;;;;;;;6.77;3.27;;;9.00;98.50;;;;;;4924069;29;20427;-75
2022/04/10 09:12:23;;;;;;;4.37;2.37;;;9.00;98.40;;;;;;4934892;29;20422;-75
2022/04/10 09:15:01;;;;;;;6.87;2.40;;;9.00;98.30;;;;;;4948579;29;20483;-74
2022/04/10 09:17:29;;;;;;;4.63;2.90;;;9.10;98.20;;;;;;4937054;29;20976;-75
2022/04/10 09:19:57;;;;;;;4.33;2.60;;;9.10;98.10;;;;;;4935374;29;20432;-75
2022/04/10 09:22:38;;;;;;;4.27;2.93;;;9.10;98.10;;;;;;4953557;29;20525;-75
2022/04/10 09:25:19;;;;;;;3.30;2.47;;;9.20;98.10;;;;;;4934647;29;20912;-75
2022/04/10 09:27:47;;;;;;;5.77;2.37;;;9.10;98.00;;;;;;4934027;29;20811;-74
2022/04/10 09:30:18;;;;;;;4.00;2.27;;;9.20;98.10;;;;;;4934711;29;20567;-75
2022/04/10 09:32:52;;;;;;;6.23;2.47;;;9.20;98.10;;;;;;4940327;29;20434;-76
2022/04/10 09:35:25;;;;;;;3.23;2.27;;;9.20;98.00;;;;;;4953570;28;20409;-76
2022/04/10 09:37:52;;;;;;;5.37;2.43;;;9.20;97.90;;;;;;4936112;29;20871;-77
2022/04/10 09:40:29;;;;;;;5.63;2.37;;;9.20;97.80;;;;;;4954823;29;20492;-77
2022/04/10 09:43:05;;;;;;;4.57;2.77;;;9.30;97.80;;;;;;4935984;29;20510;-77
2022/04/10 09:45:38;;;;;;;3.77;1.93;;;9.30;97.70;;;;;;4936111;29;20404;-77
2022/04/10 09:48:31;;;;;;;5.00;2.50;;;9.30;97.70;;;;;;4947914;29;20967;-77
2022/04/10 09:51:04;;;;;;;2.37;1.90;;;9.30;97.60;;;;;;4929088;29;20495;-77
2022/04/10 09:53:35;;;;;;;4.03;2.17;;;9.30;97.60;;;;;;4937080;29;20898;-77
2022/04/10 09:56:03;;;;;;;2.53;2.13;;;9.30;97.70;;;;;;4928483;29;20932;-77
2022/04/10 09:58:30;;;;;;;5.23;2.00;;;9.30;97.70;;;;;;4954083;29;20446;-77
2022/04/10 10:01:04;;;;;;;9.47;2.13;;;9.30;98.00;;;;;;4955991;28;20430;-77
2022/04/10 10:03:36;;;;;;;3.30;2.00;;;9.40;97.80;;;;;;4957930;29;20451;-77
2022/04/10 10:06:09;;;;;;;3.43;2.87;;;9.40;97.80;;;;;;4932980;29;20481;-77
2022/04/10 10:08:41;;;;;;;1.93;1.70;;;9.40;97.80;;;;;;4957634;29;20434;-77
2022/04/10 10:11:11;;;;;;;2.37;2.17;;;9.40;97.80;;;;;;4923069;29;20432;-78
2022/04/10 10:13:40;;;;;;;10.13;2.90;;;9.40;97.80;;;;;;4923524;29;20420;-78
2022/04/10 10:16:08;;;;;;;4.80;2.40;;;9.50;97.80;;;;;;4941168;29;20451;-78
2022/04/10 10:18:36;;;;;;;3.97;2.43;;;9.50;97.70;;;;;;4953158;28;20443;-77
2022/04/10 10:21:03;;;;;;;4.43;2.17;;;9.50;97.70;;;;;;4941872;29;20433;-78
2022/04/10 10:23:36;;;;;;;4.43;2.13;;;9.60;97.70;;;;;;4972152;28;20469;-77
2022/04/10 10:26:23;;;;;;;4.10;2.20;;;9.60;97.60;;;;;;4958459;28;20433;-78
2022/04/10 10:29:03;;;;;;;5.20;1.90;;;9.60;97.60;;;;;;4945549;28;20435;-77
2022/04/10 10:31:44;;;;;;;4.20;2.57;;;9.60;97.50;;;;;;4950820;29;20434;-78
2022/04/10 10:34:10;;;;;;;8.20;2.33;;;9.70;97.60;;;;;;4937927;29;20427;-77
2022/04/10 10:36:37;;;;;;;5.00;2.40;;;9.70;97.60;;;;;;4921884;29;20518;-77
2022/04/10 10:39:05;;;;;;;5.03;1.90;;;9.70;97.60;;;;;;4906424;29;20416;-77
2022/04/10 10:41:34;;;;;;;4.13;2.03;;;9.70;97.50;;;;;;4922460;29;20448;-77
2022/04/10 10:44:34;;;;;;;4.60;2.10;;;9.70;97.50;;;;;;4937577;29;20460;-77
2022/04/10 10:47:08;;;;;;;3.07;1.80;;;9.80;97.50;;;;;;4936857;29;20519;-77
2022/04/10 10:49:47;;;;;;;2.80;1.63;;;9.80;97.30;;;;;;4937997;29;20506;-77
2022/04/10 10:52:16;;;;;;;2.50;2.10;;;9.90;97.30;;;;;;4936645;29;20511;-77
2022/04/10 10:54:45;;;;;;;2.80;2.00;;;9.90;97.20;;;;;;4937322;29;20416;-77
2022/04/10 10:57:41;;;;;;;4.77;1.90;;;9.90;97.10;;;;;;4937030;29;20998;-77
2022/04/10 11:00:11;;;;;;;3.80;2.33;;;9.90;97.00;;;;;;4937869;29;20454;-78
2022/04/10 11:02:47;;;;;;;4.63;3.07;;;9.90;97.00;;;;;;4940210;29;20456;-78
2022/04/10 11:05:39;;;;;;;2.63;1.27;;;10.00;96.40;;;;;;4923085;29;20415;-78
2022/04/10 11:08:10;;;;;;;3.47;1.80;;;10.00;96.40;;;;;;4925424;29;20488;-77
2022/04/10 11:10:59;;;;;;;2.03;1.47;;;10.00;96.50;;;;;;4958979;29;20487;-78
2022/04/10 11:13:37;;;;;;;4.07;2.03;;;10.00;96.40;;;;;;4958164;28;20443;-78
2022/04/10 11:16:13;;;;;;;2.93;1.67;;;10.10;96.50;;;;;;4942410;29;20450;-78
2022/04/10 11:18:49;;;;;;;2.13;1.57;;;10.10;96.50;;;;;;4958364;29;20525;-78
2022/04/10 11:21:27;;;;;;;2.87;1.60;;;10.10;96.50;;;;;;4942552;29;20460;-79
2022/04/10 11:23:57;;;;;;;4.40;1.70;;;10.20;96.50;;;;;;4942188;29;20477;-78
2022/04/10 11:26:27;;;;;;;3.47;1.37;;;10.20;96.50;;;;;;4959470;28;20442;-78
2022/04/10 11:29:03;;;;;;;3.60;1.40;;;10.20;96.50;;;;;;4942149;29;20427;-78
2022/04/10 11:31:31;;;;;;;3.30;1.73;;;10.30;96.50;;;;;;4941997;29;20418;-78
2022/04/10 11:34:18;;;;;;;3.30;1.73;;;10.30;96.40;;;;;;4957860;29;20438;-78
2022/04/10 11:36:47;;;;;;;3.37;1.83;;;10.30;96.30;;;;;;4942007;29;20476;-78
2022/04/10 11:39:14;;;;;;;3.23;1.57;;;10.30;96.20;;;;;;4922932;29;21021;-78
2022/04/10 11:42:11;;;;;;;2.33;1.60;;;10.40;96.10;;;;;;4926243;29;20411;-77
2022/04/10 11:44:39;;;;;;;2.20;1.50;;;10.40;96.00;;;;;;4939226;29;20444;-77
2022/04/10 11:47:11;;;;;;;5.10;1.90;;;10.40;95.90;;;;;;4922971;29;20497;-79
2022/04/10 11:49:40;;;;;;;2.60;1.40;;;10.40;95.90;;;;;;4938948;29;20405;-78
2022/04/10 11:52:07;;;;;;;1.90;1.30;;;10.50;95.90;;;;;;4939832;29;20413;-79
2022/04/10 11:54:36;;;;;;;1.60;1.10;;;10.50;95.80;;;;;;4954016;29;20440;-78
2022/04/10 11:57:06;;;;;;;6.87;1.90;;;10.50;95.70;;;;;;4907187;29;20463;-77
2022/04/10 11:59:40;;;;;;;2.73;1.57;;;10.50;95.70;;;;;;4939567;29;20416;-78
2022/04/10 12:02:09;;;;;;;3.20;1.10;;;10.60;96.10;;;;;;4938813;29;20508;-77
2022/04/10 12:04:44;;;;;;;4.83;1.07;;;10.60;95.90;;;;;;4937879;29;20409;-77
2022/04/10 12:07:21;;;;;;;2.03;1.10;;;10.60;96.20;;;;;;4938537;29;20487;-78
2022/04/10 12:09:49;;;;;;;1.77;1.00;;;10.70;95.90;;;;;;4953633;29;20812;-77
2022/04/10 12:12:20;;;;;;;2.90;1.30;;;10.70;95.90;;;;;;4956421;29;20529;-78
2022/04/10 12:14:52;;;;;;;5.13;1.17;;;10.80;95.90;;;;;;4941320;29;20881;-78
2022/04/10 12:17:23;;;;;;;2.60;0.90;;;10.80;95.70;;;;;;4956838;29;20450;-78
2022/04/10 12:19:55;;;;;;;5.13;1.30;;;10.80;95.70;;;;;;4957418;28;20402;-78
2022/04/10 12:22:24;;;;;;;1.40;1.00;;;10.90;95.50;;;;;;4956679;29;20452;-78
2022/04/10 12:25:04;;;;;;;2.00;1.10;;;10.90;95.30;;;;;;4956911;28;20447;-77
2022/04/10 12:27:30;;;;;;;2.00;1.40;;;10.90;95.20;;;;;;4956084;29;20434;-78
2022/04/10 12:30:07;;;;;;;2.37;1.10;;;11.00;95.40;;;;;;4956031;29;20490;-77
2022/04/10 12:32:33;;;;;;;1.60;1.17;;;11.00;95.30;;;;;;4955678;29;20412;-77
2022/04/10 12:35:14;;;;;;;3.67;1.30;;;11.00;95.20;;;;;;4939694;29;20887;-77
2022/04/10 12:37:58;;;;;;;2.53;1.20;;;11.10;95.20;;;;;;4957726;28;20429;-78
2022/04/10 12:40:28;;;;;;;2.80;1.20;;;11.10;95.30;;;;;;4955927;29;20454;-77
2022/04/10 12:43:05;;;;;;;2.17;1.23;;;11.10;95.10;;;;;;4957622;28;20479;-77
2022/04/10 12:45:40;;;;;;;2.60;1.17;;;11.10;95.00;;;;;;4958357;28;20530;-78
2022/04/10 12:48:23;;;;;;;2.40;1.50;;;11.10;95.00;;;;;;4957344;28;20980;-77
2022/04/10 12:51:15;;;;;;;2.67;0.93;;;11.20;95.00;;;;;;4956089;29;20471;-78
2022/04/10 12:53:50;;;;;;;2.30;1.27;;;11.20;95.00;;;;;;4955727;29;20408;-78
2022/04/10 12:56:19;;;;;;;2.10;1.07;;;11.30;95.00;;;;;;4955289;29;20441;-77
2022/04/10 12:58:54;;;;;;;2.33;0.90;;;11.30;95.00;;;;;;4957111;28;20660;-77
2022/04/10 13:01:30;;;;;;;3.87;1.30;;;11.30;95.00;;;;;;4956262;29;20431;-77
2022/04/10 13:03:58;;;;;;;1.90;1.00;;;11.30;95.10;;;;;;4939605;29;21028;-77
2022/04/10 13:06:44;;;;;;;1.03;0.90;;;11.30;95.10;;;;;;4939538;29;20527;-78
2022/04/10 13:09:13;;;;;;;5.10;1.33;;;11.40;95.10;;;;;;4939575;29;20432;-77
2022/04/10 13:11:40;;;;;;;1.40;0.97;;;11.40;95.10;;;;;;4956888;29;20553;-78
2022/04/10 13:14:13;;;;;;;4.43;1.30;;;11.40;94.90;;;;;;4940045;29;20435;-78
2022/04/10 13:16:44;;;;;;;1.57;0.97;;;11.40;94.90;;;;;;4939519;29;20856;-76
2022/04/10 13:19:17;;;;;;;1.63;0.97;;;11.40;94.90;;;;;;4956856;28;20419;-78
2022/04/10 13:21:45;;;;;;;1.67;1.00;;;11.50;94.90;;;;;;4939581;29;20611;-77
2022/04/10 13:24:12;;;;;;;2.07;1.00;;;11.50;94.80;;;;;;4955079;28;20859;-78
2022/04/10 13:26:39;;;;;;;1.80;1.13;;;11.60;94.80;;;;;;4938971;29;20458;-78
2022/04/10 13:29:14;;;;;;;2.07;1.50;;;11.60;94.70;;;;;;4956388;28;20417;-78
2022/04/10 13:31:41;;;;;;;1.57;1.00;;;11.60;94.70;;;;;;4956460;28;20440;-77
2022/04/10 13:34:12;;;;;;;2.53;1.00;;;11.60;94.60;;;;;;4938795;29;20990;-78
2022/04/10 13:36:38;;;;;;;1.87;1.10;;;11.60;94.60;;;;;;4940975;29;20472;-78